createdAt,value
2018-12-11T00:00:29.383Z,2.40
2018-12-11T00:02:55.707Z,2.40
2018-12-11T00:05:22.087Z,2.40
2018-12-11T00:07:48.481Z,2.40
2018-12-11T00:10:15.071Z,2.30
2018-12-11T00:12:41.411Z,2.30
2018-12-11T00:15:07.999Z,2.40
2018-12-11T00:17:34.407Z,2.40
2018-12-11T00:20:00.867Z,2.40
2018-12-11T00:22:27.254Z,2.40
2018-12-11T00:24:53.537Z,2.40
2018-12-11T00:27:19.870Z,2.50
2018-12-11T00:29:46.144Z,2.40
2018-12-11T00:32:12.470Z,2.50
2018-12-11T00:34:38.760Z,2.40
2018-12-11T00:37:05.085Z,2.50
2018-12-11T00:39:31.416Z,2.50
2018-12-11T00:41:57.788Z,2.50
2018-12-11T00:44:24.161Z,2.40
2018-12-11T00:46:50.483Z,2.40
2018-12-11T00:49:16.776Z,2.40
2018-12-11T00:51:43.087Z,2.40
2018-12-11T00:54:09.392Z,2.50
2018-12-11T00:56:35.735Z,2.50
2018-12-11T00:59:02.011Z,2.50
2018-12-11T01:01:28.393Z,2.50
2018-12-11T01:03:54.727Z,2.60
2018-12-11T01:06:23.050Z,2.50
2018-12-11T01:08:49.445Z,2.50
2018-12-11T01:11:15.769Z,2.50
2018-12-11T01:13:42.072Z,2.50
2018-12-11T01:16:08.377Z,2.60
2018-12-11T01:18:34.703Z,2.50
2018-12-11T01:21:01.088Z,2.50
2018-12-11T01:23:27.376Z,2.60
2018-12-11T01:25:53.783Z,2.50
2018-12-11T01:28:20.110Z,2.50
2018-12-11T01:30:46.451Z,2.50
2018-12-11T01:33:12.770Z,2.50
2018-12-11T01:35:39.096Z,2.50
2018-12-11T01:38:05.533Z,2.50
2018-12-11T01:40:31.916Z,2.60
2018-12-11T01:42:58.203Z,2.50
2018-12-11T01:45:24.574Z,2.60
2018-12-11T01:47:50.854Z,2.60
2018-12-11T01:50:17.172Z,2.60
2018-12-11T01:52:43.540Z,2.60
2018-12-11T01:55:09.846Z,2.60
2018-12-11T01:57:36.128Z,2.60
2018-12-11T02:00:04.805Z,2.60
2018-12-11T02:02:31.130Z,2.60
2018-12-11T02:04:57.465Z,2.60
2018-12-11T02:07:23.801Z,2.70
2018-12-11T02:09:50.147Z,2.70
2018-12-11T02:12:16.493Z,2.60
2018-12-11T02:14:42.824Z,2.70
2018-12-11T02:17:09.135Z,2.70
2018-12-11T02:19:35.477Z,2.60
2018-12-11T02:22:01.826Z,2.70
2018-12-11T02:24:28.168Z,2.70
2018-12-11T02:26:54.499Z,2.70
2018-12-11T02:29:20.917Z,2.70
2018-12-11T02:31:47.295Z,2.70
2018-12-11T02:34:13.775Z,2.60
2018-12-11T02:36:40.094Z,2.70
2018-12-11T02:39:06.537Z,2.60
2018-12-11T02:41:32.938Z,2.70
2018-12-11T02:43:59.272Z,2.60
2018-12-11T02:46:25.624Z,2.70
2018-12-11T02:48:51.982Z,2.70
2018-12-11T02:51:18.299Z,2.70
2018-12-11T02:53:44.676Z,2.70
2018-12-11T02:56:11.021Z,2.70
2018-12-11T02:58:37.348Z,2.70
2018-12-11T03:01:03.707Z,2.70
2018-12-11T03:03:30.031Z,2.70
2018-12-11T03:05:56.342Z,2.70
2018-12-11T03:08:22.687Z,2.70
2018-12-11T03:10:49.045Z,2.70
2018-12-11T03:13:15.421Z,2.80
2018-12-11T03:15:41.799Z,2.70
2018-12-11T03:18:08.215Z,2.80
2018-12-11T03:20:34.529Z,2.70
2018-12-11T03:23:00.865Z,2.80
2018-12-11T03:25:27.219Z,2.80
2018-12-11T03:27:53.540Z,2.80
2018-12-11T03:30:19.922Z,2.80
2018-12-11T03:32:46.435Z,2.80
2018-12-11T03:35:12.736Z,2.80
2018-12-11T03:37:39.089Z,2.80
2018-12-11T03:40:05.631Z,2.80
2018-12-11T03:42:31.978Z,2.80
2018-12-11T03:44:58.286Z,2.80
2018-12-11T03:47:24.603Z,2.80
2018-12-11T03:49:50.923Z,2.80
2018-12-11T03:52:21.434Z,2.80
2018-12-11T03:54:45.605Z,2.70
2018-12-11T03:57:11.916Z,2.70
2018-12-11T03:59:38.353Z,2.70
2018-12-11T04:02:04.707Z,2.60
2018-12-11T04:04:31.030Z,2.60
2018-12-11T04:06:57.394Z,2.60
2018-12-11T04:09:23.722Z,2.60
2018-12-11T04:11:50.085Z,2.60
2018-12-11T04:14:16.830Z,2.60
2018-12-11T04:16:43.275Z,2.60
2018-12-11T04:19:09.612Z,2.50
2018-12-11T04:21:36.234Z,2.50
2018-12-11T04:24:02.633Z,2.60
2018-12-11T04:26:28.981Z,2.60
2018-12-11T04:28:55.379Z,2.60
2018-12-11T04:31:21.724Z,2.60
2018-12-11T04:33:48.014Z,2.60
2018-12-11T04:36:14.296Z,2.70
2018-12-11T04:38:40.642Z,2.60
2018-12-11T04:41:06.958Z,2.60
2018-12-11T04:43:33.222Z,2.70
2018-12-11T04:45:59.539Z,2.60
2018-12-11T04:48:25.864Z,2.60
2018-12-11T04:50:52.181Z,2.60
2018-12-11T04:53:18.547Z,2.70
2018-12-11T04:55:44.836Z,2.60
2018-12-11T04:58:11.134Z,2.70
2018-12-11T05:00:37.475Z,2.70
2018-12-11T05:03:03.854Z,2.80
2018-12-11T05:05:31.022Z,2.70
2018-12-11T05:07:57.370Z,2.70
2018-12-11T05:10:23.691Z,2.70
2018-12-11T05:12:50.009Z,2.80
2018-12-11T05:15:16.282Z,2.70
2018-12-11T05:17:42.583Z,2.70
2018-12-11T05:20:08.931Z,2.70
2018-12-11T05:22:35.207Z,2.70
2018-12-11T05:25:01.577Z,2.80
2018-12-11T05:27:27.952Z,2.80
2018-12-11T05:29:54.258Z,2.80
2018-12-11T05:32:20.539Z,2.70
2018-12-11T05:34:46.900Z,2.80
2018-12-11T05:37:13.360Z,2.70
2018-12-11T05:39:39.727Z,2.70
2018-12-11T05:42:06.066Z,2.80
2018-12-11T05:44:32.366Z,2.80
2018-12-11T05:46:58.672Z,2.80
2018-12-11T05:49:24.961Z,2.90
2018-12-11T05:51:51.355Z,2.90
2018-12-11T05:54:17.645Z,2.80
2018-12-11T05:56:43.980Z,2.80
2018-12-11T05:59:10.379Z,2.80
2018-12-11T06:01:36.846Z,2.90
2018-12-11T06:04:03.234Z,2.80
2018-12-11T06:06:29.533Z,2.80
2018-12-11T06:08:55.833Z,2.90
2018-12-11T06:11:22.125Z,2.90
2018-12-11T06:13:48.407Z,2.90
2018-12-11T06:16:14.948Z,2.80
2018-12-11T06:18:41.219Z,2.90
2018-12-11T06:21:07.577Z,2.90
2018-12-11T06:23:33.858Z,2.90
2018-12-11T06:26:00.177Z,2.90
2018-12-11T06:28:26.460Z,2.90
2018-12-11T06:30:52.761Z,2.90
2018-12-11T06:33:19.062Z,2.90
2018-12-11T06:35:45.342Z,2.90
2018-12-11T06:38:11.649Z,2.90
2018-12-11T06:40:37.988Z,2.90
2018-12-11T06:43:04.384Z,2.90
2018-12-11T06:45:30.726Z,2.90
2018-12-11T06:47:57.056Z,3.00
2018-12-11T06:50:25.375Z,3.00
2018-12-11T06:52:51.693Z,3.00
2018-12-11T06:55:17.983Z,3.00
2018-12-11T06:57:44.274Z,3.00
2018-12-11T07:00:10.611Z,3.00
2018-12-11T07:02:36.896Z,3.00
2018-12-11T07:05:04.227Z,3.00
2018-12-11T07:07:30.518Z,3.00
2018-12-11T07:09:56.796Z,3.00
2018-12-11T07:12:23.066Z,3.00
2018-12-11T07:14:49.406Z,3.00
2018-12-11T07:17:15.659Z,3.00
2018-12-11T07:19:41.931Z,3.00
2018-12-11T07:22:08.197Z,3.00
2018-12-11T07:24:34.493Z,3.00
2018-12-11T07:27:00.782Z,3.00
2018-12-11T07:29:27.182Z,3.00
2018-12-11T07:31:53.486Z,3.10
2018-12-11T07:34:19.797Z,3.10
2018-12-11T07:36:46.064Z,3.00
2018-12-11T07:39:12.324Z,3.10
2018-12-11T07:41:38.600Z,3.10
2018-12-11T07:44:04.855Z,3.10
2018-12-11T07:46:31.163Z,3.00
2018-12-11T07:48:57.430Z,3.00
2018-12-11T07:51:23.721Z,3.10
2018-12-11T07:53:50.029Z,3.10
2018-12-11T07:56:16.303Z,3.10
2018-12-11T07:58:42.610Z,3.10
2018-12-11T08:01:08.889Z,3.10
2018-12-11T08:03:35.162Z,3.10
2018-12-11T08:06:01.455Z,3.20
2018-12-11T08:08:27.728Z,3.10
2018-12-11T08:10:53.988Z,3.10
2018-12-11T08:13:20.304Z,3.20
2018-12-11T08:15:46.720Z,3.20
2018-12-11T08:18:13.072Z,3.20
2018-12-11T08:20:39.358Z,3.10
2018-12-11T08:23:05.664Z,3.20
2018-12-11T08:25:31.971Z,3.20
2018-12-11T08:27:58.261Z,3.20
2018-12-11T08:30:24.558Z,3.10
2018-12-11T08:32:50.868Z,3.20
2018-12-11T08:35:17.196Z,3.20
2018-12-11T08:37:43.547Z,3.30
2018-12-11T08:40:09.860Z,3.20
2018-12-11T08:42:36.183Z,3.20
2018-12-11T08:45:02.863Z,3.20
2018-12-11T08:47:29.169Z,3.20
2018-12-11T08:49:55.462Z,3.20
2018-12-11T08:52:21.820Z,3.30
2018-12-11T08:54:48.148Z,3.30
2018-12-11T08:57:14.474Z,3.30
2018-12-11T08:59:40.827Z,3.30
2018-12-11T09:02:07.083Z,3.30
2018-12-11T09:04:33.400Z,3.30
2018-12-11T09:06:59.765Z,3.30
2018-12-11T09:09:26.057Z,3.30
2018-12-11T09:11:52.504Z,3.30
2018-12-11T09:14:18.857Z,3.30
2018-12-11T09:16:45.179Z,3.30
2018-12-11T09:19:11.536Z,3.30
2018-12-11T09:21:37.856Z,3.20
2018-12-11T09:24:04.139Z,3.40
2018-12-11T09:26:30.472Z,3.40
2018-12-11T09:28:56.748Z,3.40
2018-12-11T09:31:23.084Z,3.30
2018-12-11T09:33:49.455Z,3.40
2018-12-11T09:36:15.738Z,3.40
2018-12-11T09:38:42.070Z,3.50
2018-12-11T09:41:08.644Z,3.50
2018-12-11T09:43:34.964Z,3.50
2018-12-11T09:46:01.251Z,3.50
2018-12-11T09:48:27.535Z,3.50
2018-12-11T09:50:53.863Z,3.50
2018-12-11T09:53:20.151Z,3.50
2018-12-11T09:55:46.532Z,3.60
2018-12-11T09:58:12.813Z,3.60
2018-12-11T10:00:39.197Z,3.60
2018-12-11T10:03:05.570Z,3.60
2018-12-11T10:05:31.919Z,3.60
2018-12-11T10:07:58.220Z,3.60
2018-12-11T10:10:24.600Z,3.70
2018-12-11T10:12:50.942Z,3.60
2018-12-11T10:15:17.289Z,3.60
2018-12-11T10:17:43.565Z,3.60
2018-12-11T10:20:10.107Z,3.60
2018-12-11T10:22:36.391Z,3.60
2018-12-11T10:25:03.143Z,3.60
2018-12-11T10:27:29.469Z,3.60
2018-12-11T10:29:55.760Z,3.70
2018-12-11T10:32:22.038Z,3.60
2018-12-11T10:34:48.349Z,3.70
2018-12-11T10:37:14.671Z,3.70
2018-12-11T10:39:40.991Z,3.70
2018-12-11T10:42:07.307Z,3.70
2018-12-11T10:44:33.649Z,3.70
2018-12-11T10:46:59.940Z,3.80
2018-12-11T10:49:26.288Z,3.80
2018-12-11T10:51:52.616Z,3.80
2018-12-11T10:54:18.947Z,3.70
2018-12-11T10:56:45.260Z,3.80
2018-12-11T10:59:11.587Z,3.90
2018-12-11T11:01:39.955Z,4.00
2018-12-11T11:04:06.495Z,3.90
2018-12-11T11:06:32.792Z,4.00
2018-12-11T11:08:59.077Z,4.00
2018-12-11T11:11:25.442Z,4.00
2018-12-11T11:13:51.751Z,4.00
2018-12-11T11:16:18.051Z,4.00
2018-12-11T11:18:44.340Z,4.00
2018-12-11T11:21:10.633Z,3.90
2018-12-11T11:23:36.907Z,4.00
2018-12-11T11:26:03.249Z,4.00
2018-12-11T11:28:29.534Z,4.00
2018-12-11T11:30:55.826Z,4.00
2018-12-11T11:33:22.145Z,4.10
2018-12-11T11:35:48.429Z,4.10
2018-12-11T11:38:14.703Z,4.20
2018-12-11T11:40:40.991Z,4.20
2018-12-11T11:43:07.257Z,4.20
2018-12-11T11:45:33.551Z,4.20
2018-12-11T11:47:59.850Z,4.20
2018-12-11T11:50:26.497Z,4.20
2018-12-11T11:52:52.746Z,4.20
2018-12-11T11:55:19.031Z,4.10
2018-12-11T11:57:45.287Z,4.20
2018-12-11T12:00:13.260Z,4.20
2018-12-11T12:02:39.547Z,4.20
2018-12-11T12:05:05.993Z,4.20
2018-12-11T12:07:32.273Z,4.20
2018-12-11T12:09:58.557Z,4.20
2018-12-11T12:12:24.892Z,4.10
2018-12-11T12:15:11.139Z,4.30
2018-12-11T12:17:37.433Z,4.20
2018-12-11T12:20:05.687Z,4.20
2018-12-11T12:22:31.986Z,4.20
2018-12-11T12:24:58.248Z,4.30
2018-12-11T12:27:24.520Z,4.20
2018-12-11T12:29:50.795Z,4.20
2018-12-11T12:32:17.075Z,4.20
2018-12-11T12:34:43.376Z,4.20
2018-12-11T12:37:09.655Z,4.30
2018-12-11T12:39:35.968Z,4.40
2018-12-11T12:42:02.266Z,4.30
2018-12-11T12:44:28.547Z,4.30
2018-12-11T12:46:54.832Z,4.40
2018-12-11T12:49:21.098Z,4.40
2018-12-11T12:51:47.389Z,4.40
2018-12-11T12:54:13.671Z,4.40
2018-12-11T12:56:39.939Z,4.50
2018-12-11T12:59:06.237Z,4.40
2018-12-11T13:01:32.515Z,4.30
2018-12-11T13:03:59.028Z,4.30
2018-12-11T13:06:25.798Z,4.40
2018-12-11T13:08:53.207Z,4.40
2018-12-11T13:11:19.500Z,4.40
2018-12-11T13:13:45.823Z,4.40
2018-12-11T13:16:12.878Z,4.40
2018-12-11T13:18:39.388Z,4.30
2018-12-11T13:21:05.675Z,4.30
2018-12-11T13:23:31.958Z,4.40
2018-12-11T13:25:58.220Z,4.40
2018-12-11T13:28:24.512Z,4.30
2018-12-11T13:30:50.778Z,4.30
2018-12-11T13:33:17.067Z,4.30
2018-12-11T13:35:43.370Z,4.20
2018-12-11T13:38:09.664Z,4.20
2018-12-11T13:40:36.279Z,4.10
2018-12-11T13:43:02.827Z,4.20
2018-12-11T13:45:29.184Z,4.20
2018-12-11T13:47:55.570Z,4.30
2018-12-11T13:50:22.001Z,4.20
2018-12-11T13:52:48.272Z,4.20
2018-12-11T13:55:14.628Z,4.20
2018-12-11T13:57:40.924Z,4.20
2018-12-11T14:00:07.263Z,4.10
2018-12-11T14:02:33.526Z,4.00
2018-12-11T14:04:59.856Z,4.00
2018-12-11T14:07:26.124Z,3.90
2018-12-11T14:09:52.391Z,4.00
2018-12-11T14:12:18.747Z,3.90
2018-12-11T14:14:45.028Z,3.90
2018-12-11T14:17:11.310Z,4.00
2018-12-11T14:19:37.576Z,4.10
2018-12-11T14:22:04.281Z,4.10
2018-12-11T14:24:30.586Z,4.10
2018-12-11T14:26:56.862Z,4.10
2018-12-11T14:29:23.123Z,4.10
2018-12-11T14:31:49.412Z,4.10
2018-12-11T14:34:15.834Z,4.10
2018-12-11T14:36:42.115Z,4.10
2018-12-11T14:39:08.520Z,4.10
2018-12-11T14:41:34.898Z,4.10
2018-12-11T14:44:01.202Z,4.10
2018-12-11T14:46:27.491Z,4.10
2018-12-11T14:48:53.881Z,4.10
2018-12-11T14:51:20.163Z,4.10
2018-12-11T14:53:46.414Z,4.10
2018-12-11T14:56:12.691Z,4.00
2018-12-11T14:58:38.967Z,4.00
2018-12-11T15:01:05.286Z,4.00
2018-12-11T15:03:31.552Z,4.00
2018-12-11T15:05:57.836Z,4.00
2018-12-11T15:08:24.097Z,4.00
2018-12-11T15:10:50.714Z,4.00
2018-12-11T15:13:17.005Z,4.00
2018-12-11T15:15:43.263Z,3.90
2018-12-11T15:18:09.560Z,3.90
2018-12-11T15:20:35.939Z,3.90
2018-12-11T15:23:02.234Z,4.00
2018-12-11T15:25:28.636Z,3.90
2018-12-11T15:27:54.973Z,4.00
2018-12-11T15:30:21.234Z,3.90
2018-12-11T15:32:47.539Z,3.90
2018-12-11T15:35:13.818Z,4.00
2018-12-11T15:37:40.094Z,3.90
2018-12-11T15:40:06.797Z,3.90
2018-12-11T15:42:33.223Z,3.80
2018-12-11T15:44:59.505Z,3.90
2018-12-11T15:47:25.804Z,4.00
2018-12-11T15:49:52.088Z,3.90
2018-12-11T15:52:18.350Z,3.90
2018-12-11T15:54:44.626Z,3.90
2018-12-11T15:57:10.935Z,3.90
2018-12-11T15:59:37.257Z,3.80
2018-12-11T16:02:03.552Z,3.80
2018-12-11T16:04:29.848Z,3.80
2018-12-11T16:06:56.157Z,3.80
2018-12-11T16:09:24.459Z,3.80
2018-12-11T16:11:50.763Z,3.80
2018-12-11T16:14:17.038Z,3.80
2018-12-11T16:16:43.435Z,3.80
2018-12-11T16:19:09.730Z,3.80
2018-12-11T16:21:35.992Z,3.70
2018-12-11T16:24:02.284Z,3.70
2018-12-11T16:26:28.576Z,3.70
2018-12-11T16:28:54.942Z,3.70
2018-12-11T16:31:21.278Z,3.70
2018-12-11T16:33:47.608Z,3.70
2018-12-11T16:36:13.895Z,3.70
2018-12-11T16:38:40.200Z,3.70
2018-12-11T16:41:06.511Z,3.70
2018-12-11T16:43:32.779Z,3.60
2018-12-11T16:45:59.092Z,3.70
2018-12-11T16:48:25.381Z,3.70
2018-12-11T16:50:51.759Z,3.60
2018-12-11T16:53:18.050Z,3.60
2018-12-11T16:55:44.403Z,3.60
2018-12-11T16:58:10.746Z,3.50
2018-12-11T17:00:37.170Z,3.50
2018-12-11T17:03:05.253Z,3.50
2018-12-11T17:05:32.347Z,3.40
2018-12-11T17:07:58.724Z,3.40
2018-12-11T17:10:24.974Z,3.40
2018-12-11T17:12:51.315Z,3.40
2018-12-11T17:15:18.632Z,3.40
2018-12-11T17:17:45.131Z,3.40
2018-12-11T17:20:11.406Z,3.40
2018-12-11T17:22:37.695Z,3.30
2018-12-11T17:25:04.529Z,3.40
2018-12-11T17:27:30.792Z,3.30
2018-12-11T17:29:57.090Z,3.30
2018-12-11T17:32:23.363Z,3.30
2018-12-11T17:34:49.611Z,3.30
2018-12-11T17:37:15.927Z,3.20
2018-12-11T17:39:42.208Z,3.20
2018-12-11T17:42:08.478Z,3.30
2018-12-11T17:44:34.766Z,3.30
2018-12-11T17:47:01.034Z,3.30
2018-12-11T17:49:27.344Z,3.30
2018-12-11T17:51:53.636Z,3.30
2018-12-11T17:54:19.899Z,3.40
2018-12-11T17:56:46.536Z,3.30
2018-12-11T17:59:13.256Z,3.40
2018-12-11T18:01:40.163Z,3.30
2018-12-11T18:04:06.443Z,3.30
2018-12-11T18:06:35.776Z,3.40
2018-12-11T18:09:04.022Z,3.30
2018-12-11T18:11:30.282Z,3.40
2018-12-11T18:13:56.558Z,3.30
2018-12-11T18:16:22.832Z,3.30
2018-12-11T18:18:49.087Z,3.30
2018-12-11T18:21:15.392Z,3.20
2018-12-11T18:23:41.677Z,3.20
2018-12-11T18:26:07.937Z,3.20
2018-12-11T18:28:34.238Z,3.20
2018-12-11T18:31:00.491Z,3.10
2018-12-11T18:33:26.772Z,3.10
2018-12-11T18:35:53.054Z,3.10
2018-12-11T18:38:19.361Z,3.10
2018-12-11T18:40:45.616Z,3.00
2018-12-11T18:43:11.975Z,3.10
2018-12-11T18:45:38.284Z,3.10
2018-12-11T18:48:04.557Z,3.10
2018-12-11T18:50:30.851Z,3.00
2018-12-11T18:52:57.108Z,3.10
2018-12-11T18:55:23.352Z,3.10
2018-12-11T18:57:49.631Z,3.00
2018-12-11T19:00:15.898Z,3.10
2018-12-11T19:02:42.313Z,3.10
2018-12-11T19:05:08.699Z,3.20
2018-12-11T19:07:34.979Z,3.20
2018-12-11T19:10:01.286Z,3.20
2018-12-11T19:12:27.535Z,3.20
2018-12-11T19:14:53.795Z,3.20
2018-12-11T19:17:20.076Z,3.20
2018-12-11T19:19:46.323Z,3.20
2018-12-11T19:22:12.615Z,3.20
2018-12-11T19:24:39.123Z,3.20
2018-12-11T19:27:05.418Z,3.20
2018-12-11T19:29:31.704Z,3.20
2018-12-11T19:31:57.996Z,3.20
2018-12-11T19:34:24.273Z,3.20
2018-12-11T19:36:50.551Z,3.10
2018-12-11T19:39:16.829Z,3.20
2018-12-11T19:41:43.145Z,3.10
2018-12-11T19:44:09.413Z,3.10
2018-12-11T19:46:35.691Z,3.00
2018-12-11T19:49:02.019Z,3.00
2018-12-11T19:51:28.275Z,3.00
2018-12-11T19:53:54.536Z,3.00
2018-12-11T19:56:21.248Z,3.00
2018-12-11T19:58:47.509Z,2.90
2018-12-11T20:01:14.017Z,2.90
2018-12-11T20:03:40.411Z,2.80
2018-12-11T20:06:06.671Z,2.80
2018-12-11T20:08:32.958Z,2.80
2018-12-11T20:10:59.232Z,2.70
2018-12-11T20:13:25.532Z,2.70
2018-12-11T20:15:51.795Z,2.70
2018-12-11T20:18:18.124Z,2.70
2018-12-11T20:20:44.407Z,2.70
2018-12-11T20:23:10.701Z,2.70
2018-12-11T20:25:37.088Z,2.70
2018-12-11T20:28:03.390Z,2.70
2018-12-11T20:30:29.654Z,2.70
2018-12-11T20:32:55.898Z,2.60
2018-12-11T20:35:22.161Z,2.60
2018-12-11T20:37:48.455Z,2.70
2018-12-11T20:40:14.740Z,2.70
2018-12-11T20:42:41.018Z,2.70
2018-12-11T20:45:07.503Z,2.80
2018-12-11T20:47:33.738Z,2.70
2018-12-11T20:50:00.006Z,2.60
2018-12-11T20:52:26.271Z,2.70
2018-12-11T20:54:52.542Z,2.60
2018-12-11T20:57:18.832Z,2.70
2018-12-11T20:59:45.131Z,2.70
2018-12-11T21:02:11.415Z,2.70
2018-12-11T21:04:37.662Z,2.70
2018-12-11T21:07:03.958Z,2.70
2018-12-11T21:09:30.330Z,2.70
2018-12-11T21:11:56.583Z,2.70
2018-12-11T21:14:22.907Z,2.80
2018-12-11T21:16:49.223Z,2.80
2018-12-11T21:19:15.645Z,2.80
2018-12-11T21:21:42.920Z,2.80
2018-12-11T21:24:09.563Z,2.80
2018-12-11T21:26:35.858Z,2.80
2018-12-11T21:29:02.248Z,2.80
2018-12-11T21:31:28.499Z,2.70
2018-12-11T21:33:54.757Z,2.80
2018-12-11T21:36:21.181Z,2.70
2018-12-11T21:38:47.467Z,2.70
2018-12-11T21:41:13.723Z,2.70
2018-12-11T21:43:40.004Z,2.70
2018-12-11T21:46:06.334Z,2.70
2018-12-11T21:48:32.618Z,2.70
2018-12-11T21:50:58.907Z,2.70
2018-12-11T21:53:25.158Z,2.70
2018-12-11T21:55:51.523Z,2.70
2018-12-11T21:58:18.016Z,2.80
2018-12-11T22:00:44.287Z,2.70
2018-12-11T22:03:10.985Z,2.70
2018-12-11T22:05:37.425Z,2.70
2018-12-11T22:08:03.701Z,2.70
2018-12-11T22:10:29.981Z,2.70
2018-12-11T22:12:56.259Z,2.70
2018-12-11T22:15:22.518Z,2.70
2018-12-11T22:17:48.803Z,2.80
2018-12-11T22:20:15.061Z,2.90
2018-12-11T22:22:41.365Z,2.80
2018-12-11T22:25:07.651Z,2.80
2018-12-11T22:27:33.923Z,2.70
2018-12-11T22:30:00.191Z,2.70
2018-12-11T22:32:26.469Z,2.70
2018-12-11T22:34:52.750Z,2.70
2018-12-11T22:37:19.019Z,2.70
2018-12-11T22:39:45.298Z,2.70
2018-12-11T22:42:11.595Z,2.70
2018-12-11T22:44:37.875Z,2.70
2018-12-11T22:47:04.196Z,2.80
2018-12-11T22:49:30.571Z,2.80
2018-12-11T22:51:56.827Z,2.90
2018-12-11T22:54:23.257Z,2.90
2018-12-11T22:56:49.545Z,2.90
2018-12-11T22:59:15.794Z,2.90
2018-12-11T23:01:42.167Z,2.90
2018-12-11T23:04:08.435Z,2.90
2018-12-11T23:06:34.667Z,2.80
2018-12-11T23:09:00.927Z,2.90
2018-12-11T23:11:27.167Z,2.90
2018-12-11T23:13:53.406Z,2.90
2018-12-11T23:16:19.671Z,2.80
2018-12-11T23:18:45.903Z,2.80
2018-12-11T23:21:12.191Z,2.80
2018-12-11T23:23:38.592Z,2.80
2018-12-11T23:26:04.846Z,2.90
2018-12-11T23:28:31.103Z,2.80
2018-12-11T23:30:57.364Z,2.90
2018-12-11T23:33:23.731Z,2.90
2018-12-11T23:35:50.001Z,2.90
2018-12-11T23:38:16.257Z,2.90
2018-12-11T23:40:42.536Z,2.90
2018-12-11T23:43:08.800Z,2.90
2018-12-11T23:45:35.060Z,2.90
2018-12-11T23:48:01.326Z,2.90
2018-12-11T23:50:27.562Z,2.90
2018-12-11T23:52:53.828Z,3.00
2018-12-11T23:55:20.084Z,3.00
2018-12-11T23:57:46.346Z,3.00
